SBCRSBCG

Guest
Details From SBCR - Corumba Intl
To SBCG - Campo Grande
Flight Number -
Tags Generated
Created
Modified
Stats Distance 191 nm / 354 km
Max Altitude 0 ft / 0 m
Waypoints 2
Social Downloads 1
Likes 0
Share VATSIM

Download

Looking for another format? Having issues loading an existing format? Contact us
Advertisement - Login to hide

Notes

Generated

Route

SBCR SBCG

ID Type Via Altitude Latitude Longitude Leg Dist Tot Dist Heading (true) Name
O SBCR APT - 0 ft / 0 m -19.01432˚ -57.68223˚ - 0 nm - -
O SBCG APT - 0 ft / 0 m -20.47754˚ -54.68069˚ 191 nm 191 nm 118° / 117° -

Altitude Profile

Advertisement - Login to hide

Weather


0- 5 10 15 20 25 30 35+ Temperature / ° C

Clouds and Precipitation
Forecast for 2017-12-13 00:00 UTC. Updated 32 minutes ago

Ground ~20,000 ft ~40,000 ft Winds

SBCR

Details ICAO SBCR (CMG)
Name CORUMBA INTL
Region Brazil
Timezone America/Campo_Grande (UTC-3.0)
Stats Elevation 461 ft / 141 m (AMSL)
Location -19.011930° -57.673051°
Runways 1
Magnetic Variation 15.788° W

METAR

SBCR 122300Z 15003KT CAVOK 29/22 Q1007

Decode

TAF

TAF SBCR 121400Z 1218/1318 25005KT CAVOK TX35/1218Z TN22/1309Z RMK PEB

Decode

Departure Runways

ID Width Length Bearing (true) Bearing (mag) Surface Threshold Offset Overrun Length
09 148 ft / 45 m 6,567 ft / 2,002 m 74.62° 90.41° Asphalt 0 ft / 0 m 197 ft / 60 m
27 148 ft / 45 m 6,567 ft / 2,002 m 254.62° 270.41° Asphalt 0 ft / 0 m 197 ft / 60 m

SBCG

Details ICAO SBCG (CGR)
Name Campo Grande
Region Brazil
Timezone America/Campo_Grande (UTC-3.0)
Stats Elevation 1,833 ft / 559 m (AMSL)
Location -20.468666° -54.672500°
Runways 1
Magnetic Variation 17.530° W

METAR

SBCG 122300Z 18003KT 9999 SCT045 26/17 Q1011

Decode

TAF

TAF SBCG 121400Z 1218/1318 11008KT CAVOK TX32/1218Z TN22/1309Z BECMG 1306/1310 07010KT RMK PEB

Decode

Destination Runways

ID Width Length Bearing (true) Bearing (mag) Surface Threshold Offset Overrun Length
06 141 ft / 43 m 8,563 ft / 2,610 m 40.84° 58.37° Asphalt 0 ft / 0 m 192 ft / 59 m
24 141 ft / 43 m 8,563 ft / 2,610 m 220.83° 238.36° Asphalt 0 ft / 0 m 190 ft / 58 m

Approach Navaids

Runway Type Ident Frequency Range Bearing (true) Bearing (mag) Slope Elevation
06 Localiser ICG 110.30 MHz 18 nm / 33 km 41.62° 59.15° - 1,833 ft / 559 m (AMSL)
06 Glidescope ICG 110.30 MHz 10 nm / 19 km 40.84° 58.37° 3.00° 1,833 ft / 559 m (AMSL)

Popular Alternatives